Terminal Aerodrome Forecast
Issued by NWS Cheyenne, WY

Home | Current Version | Previous Version | Text Only | Print | Product List | Glossary On
Versions: 1 2 3 4 5 6 7 8 9 10 11 12 13 14 15 16 17 18 19 20 21 22 23 24 25 26 27 28 29 30 31 32 33 34 35 36 37 38 39 40 41 42 43 44 45 46 47
000
FTUS45 KCYS 121700
TAFCYS
TAF
KCYS 121739Z 1218/1318 02010KT P6SM VCSH BKN050 OVC080
      TEMPO 1219/1222 VRB20G30KT 5SM TSRA BKN040CB
     FM130500 VRB03KT P6SM SCT005 BKN040
     FM131100 VRB04KT 1SM BR BKN004
     FM131500 VRB05KT P6SM SCT040=

USA.gov is the U.S. government's official web portal to all federal, state and local government web resources and services.